sensor_id;sensor_type;location;lat;lon;timestamp;P1;durP1;ratioP1;P2;durP2;ratioP2
803;SDS011;25687;49.976;8.240;2024-03-23T00:55:28;11.43;;;8.93;;
803;SDS011;25687;49.976;8.240;2024-03-23T00:57:53;10.13;;;9.00;;
803;SDS011;25687;49.976;8.240;2024-03-23T01:00:18;9.77;;;8.77;;
803;SDS011;25687;49.976;8.240;2024-03-23T01:02:44;12.03;;;9.27;;
803;SDS011;25687;49.976;8.240;2024-03-23T01:05:09;9.73;;;8.73;;
803;SDS011;25687;49.976;8.240;2024-03-23T01:07:34;14.87;;;10.50;;
803;SDS011;25687;49.976;8.240;2024-03-23T01:09:59;14.93;;;9.80;;
803;SDS011;25687;49.976;8.240;2024-03-23T01:12:25;12.87;;;10.57;;
803;SDS011;25687;49.976;8.240;2024-03-23T01:14:50;13.17;;;10.23;;
803;SDS011;25687;49.976;8.240;2024-03-23T01:17:15;11.63;;;10.43;;
803;SDS011;25687;49.976;8.240;2024-03-23T01:19:41;13.57;;;11.37;;
803;SDS011;25687;49.976;8.240;2024-03-23T01:22:06;20.93;;;11.97;;
803;SDS011;25687;49.976;8.240;2024-03-23T01:24:32;15.20;;;11.57;;
803;SDS011;25687;49.976;8.240;2024-03-23T01:26:57;16.93;;;11.97;;
803;SDS011;25687;49.976;8.240;2024-03-23T01:29:22;15.20;;;12.67;;
803;SDS011;25687;49.976;8.240;2024-03-23T01:31:48;16.90;;;12.53;;
803;SDS011;25687;49.976;8.240;2024-03-23T01:34:13;21.83;;;12.93;;
803;SDS011;25687;49.976;8.240;2024-03-23T01:36:39;18.23;;;13.13;;
803;SDS011;25687;49.976;8.240;2024-03-23T01:39:04;14.60;;;12.90;;
803;SDS011;25687;49.976;8.240;2024-03-23T01:41:30;16.00;;;13.07;;
803;SDS011;25687;49.976;8.240;2024-03-23T01:43:55;17.73;;;13.13;;
803;SDS011;25687;49.976;8.240;2024-03-23T01:46:21;16.43;;;13.20;;
803;SDS011;25687;49.976;8.240;2024-03-23T01:48:47;17.17;;;13.70;;
803;SDS011;25687;49.976;8.240;2024-03-23T01:51:12;18.63;;;13.13;;
803;SDS011;25687;49.976;8.240;2024-03-23T01:53:38;18.40;;;13.77;;
803;SDS011;25687;49.976;8.240;2024-03-23T01:56:04;16.37;;;12.50;;
803;SDS011;25687;49.976;8.240;2024-03-23T01:58:30;17.27;;;14.07;;
803;SDS011;25687;49.976;8.240;2024-03-23T02:00:56;19.00;;;14.57;;
803;SDS011;25687;49.976;8.240;2024-03-23T02:03:26;16.17;;;13.43;;
803;SDS011;25687;49.976;8.240;2024-03-23T02:05:53;18.07;;;14.17;;
803;SDS011;25687;49.976;8.240;2024-03-23T02:08:20;22.63;;;14.40;;
803;SDS011;25687;49.976;8.240;2024-03-23T02:10:46;22.97;;;16.23;;
803;SDS011;25687;49.976;8.240;2024-03-23T02:13:13;19.77;;;15.40;;
803;SDS011;25687;49.976;8.240;2024-03-23T02:15:39;20.00;;;14.17;;
803;SDS011;25687;49.976;8.240;2024-03-23T02:18:04;22.10;;;15.03;;
803;SDS011;25687;49.976;8.240;2024-03-23T02:20:30;22.97;;;14.63;;
803;SDS011;25687;49.976;8.240;2024-03-23T02:22:55;19.57;;;14.40;;
803;SDS011;25687;49.976;8.240;2024-03-23T02:25:20;21.23;;;14.70;;
803;SDS011;25687;49.976;8.240;2024-03-23T02:27:46;21.00;;;15.73;;
803;SDS011;25687;49.976;8.240;2024-03-23T02:30:11;21.03;;;15.50;;
803;SDS011;25687;49.976;8.240;2024-03-23T02:32:36;19.97;;;15.43;;
803;SDS011;25687;49.976;8.240;2024-03-23T02:35:02;26.57;;;17.00;;
803;SDS011;25687;49.976;8.240;2024-03-23T02:37:27;22.90;;;16.00;;
803;SDS011;25687;49.976;8.240;2024-03-23T02:39:52;18.90;;;14.27;;
803;SDS011;25687;49.976;8.240;2024-03-23T02:42:18;21.23;;;15.77;;
803;SDS011;25687;49.976;8.240;2024-03-23T02:44:44;25.20;;;16.53;;
803;SDS011;25687;49.976;8.240;2024-03-23T02:47:09;22.17;;;16.13;;
803;SDS011;25687;49.976;8.240;2024-03-23T02:49:35;22.63;;;15.77;;
803;SDS011;25687;49.976;8.240;2024-03-23T02:52:00;20.83;;;15.47;;
803;SDS011;25687;49.976;8.240;2024-03-23T02:54:26;22.83;;;16.23;;
803;SDS011;25687;49.976;8.240;2024-03-23T02:56:51;25.00;;;16.77;;
803;SDS011;25687;49.976;8.240;2024-03-23T02:59:16;21.70;;;16.20;;
803;SDS011;25687;49.976;8.240;2024-03-23T03:01:41;22.63;;;16.17;;
803;SDS011;25687;49.976;8.240;2024-03-23T03:04:07;22.30;;;16.03;;
803;SDS011;25687;49.976;8.240;2024-03-23T03:06:32;27.00;;;16.40;;
803;SDS011;25687;49.976;8.240;2024-03-23T03:08:57;20.17;;;16.40;;
803;SDS011;25687;49.976;8.240;2024-03-23T03:11:23;18.90;;;14.83;;
803;SDS011;25687;49.976;8.240;2024-03-23T03:13:48;20.57;;;15.10;;
803;SDS011;25687;49.976;8.240;2024-03-23T03:16:13;23.93;;;15.77;;
803;SDS011;25687;49.976;8.240;2024-03-23T03:18:39;21.83;;;15.50;;
803;SDS011;25687;49.976;8.240;2024-03-23T03:21:07;24.83;;;15.57;;
803;SDS011;25687;49.976;8.240;2024-03-23T03:23:36;21.50;;;15.67;;
803;SDS011;25687;49.976;8.240;2024-03-23T03:26:04;20.97;;;15.67;;
803;SDS011;25687;49.976;8.240;2024-03-23T03:28:31;23.10;;;16.03;;
803;SDS011;25687;49.976;8.240;2024-03-23T03:30:57;21.37;;;15.87;;
803;SDS011;25687;49.976;8.240;2024-03-23T03:33:23;22.20;;;15.80;;
803;SDS011;25687;49.976;8.240;2024-03-23T03:35:48;20.67;;;16.27;;
803;SDS011;25687;49.976;8.240;2024-03-23T03:38:14;23.10;;;16.90;;
803;SDS011;25687;49.976;8.240;2024-03-23T03:40:39;21.83;;;16.03;;
803;SDS011;25687;49.976;8.240;2024-03-23T03:43:06;20.43;;;16.37;;
803;SDS011;25687;49.976;8.240;2024-03-23T03:45:31;23.87;;;15.90;;
803;SDS011;25687;49.976;8.240;2024-03-23T03:47:57;21.90;;;15.23;;
803;SDS011;25687;49.976;8.240;2024-03-23T03:50:22;19.33;;;14.50;;
803;SDS011;25687;49.976;8.240;2024-03-23T03:52:47;19.97;;;16.30;;
803;SDS011;25687;49.976;8.240;2024-03-23T03:55:13;24.97;;;15.70;;
803;SDS011;25687;49.976;8.240;2024-03-23T03:57:39;18.30;;;13.27;;
803;SDS011;25687;49.976;8.240;2024-03-23T04:00:05;12.37;;;10.43;;
803;SDS011;25687;49.976;8.240;2024-03-23T04:02:31;9.53;;;7.87;;
803;SDS011;25687;49.976;8.240;2024-03-23T04:04:56;9.03;;;7.27;;
803;SDS011;25687;49.976;8.240;2024-03-23T04:07:22;7.03;;;4.97;;
803;SDS011;25687;49.976;8.240;2024-03-23T04:09:48;4.83;;;4.30;;
803;SDS011;25687;49.976;8.240;2024-03-23T04:12:14;3.70;;;3.30;;
803;SDS011;25687;49.976;8.240;2024-03-23T04:14:39;7.87;;;4.27;;
803;SDS011;25687;49.976;8.240;2024-03-23T04:17:05;4.90;;;3.17;;
803;SDS011;25687;49.976;8.240;2024-03-23T04:19:30;4.57;;;2.97;;
803;SDS011;25687;49.976;8.240;2024-03-23T04:21:55;3.77;;;2.97;;
803;SDS011;25687;49.976;8.240;2024-03-23T04:24:20;3.83;;;2.93;;
803;SDS011;25687;49.976;8.240;2024-03-23T04:26:47;3.50;;;2.50;;
803;SDS011;25687;49.976;8.240;2024-03-23T04:29:12;2.77;;;2.27;;
803;SDS011;25687;49.976;8.240;2024-03-23T04:31:38;2.70;;;2.00;;
803;SDS011;25687;49.976;8.240;2024-03-23T04:34:03;1.50;;;1.40;;
803;SDS011;25687;49.976;8.240;2024-03-23T04:36:29;1.80;;;1.57;;
803;SDS011;25687;49.976;8.240;2024-03-23T04:38:55;2.03;;;1.70;;
803;SDS011;25687;49.976;8.240;2024-03-23T04:41:22;1.63;;;1.50;;
803;SDS011;25687;49.976;8.240;2024-03-23T04:43:47;1.60;;;1.50;;
803;SDS011;25687;49.976;8.240;2024-03-23T04:46:12;2.17;;;1.70;;
803;SDS011;25687;49.976;8.240;2024-03-23T04:48:37;2.30;;;2.00;;
803;SDS011;25687;49.976;8.240;2024-03-23T04:51:03;1.50;;;1.40;;
803;SDS011;25687;49.976;8.240;2024-03-23T04:53:29;2.13;;;1.93;;
803;SDS011;25687;49.976;8.240;2024-03-23T04:55:55;2.07;;;1.87;;
803;SDS011;25687;49.976;8.240;2024-03-23T04:58:21;1.93;;;1.83;;
803;SDS011;25687;49.976;8.240;2024-03-23T05:00:47;2.40;;;2.20;;
803;SDS011;25687;49.976;8.240;2024-03-23T05:03:12;2.37;;;2.17;;
803;SDS011;25687;49.976;8.240;2024-03-23T05:05:37;2.50;;;2.30;;
803;SDS011;25687;49.976;8.240;2024-03-23T05:08:02;2.40;;;2.20;;
803;SDS011;25687;49.976;8.240;2024-03-23T05:10:29;3.00;;;2.67;;
803;SDS011;25687;49.976;8.240;2024-03-23T05:12:54;3.03;;;2.40;;
803;SDS011;25687;49.976;8.240;2024-03-23T05:15:19;2.80;;;2.60;;
803;SDS011;25687;49.976;8.240;2024-03-23T05:17:45;4.53;;;3.17;;
803;SDS011;25687;49.976;8.240;2024-03-23T05:20:10;2.87;;;2.67;;
803;SDS011;25687;49.976;8.240;2024-03-23T05:22:37;2.50;;;2.30;;
803;SDS011;25687;49.976;8.240;2024-03-23T05:25:02;2.40;;;2.20;;
803;SDS011;25687;49.976;8.240;2024-03-23T05:27:29;2.63;;;2.40;;
803;SDS011;25687;49.976;8.240;2024-03-23T05:29:56;2.50;;;2.30;;
803;SDS011;25687;49.976;8.240;2024-03-23T05:32:21;1.67;;;1.57;;
803;SDS011;25687;49.976;8.240;2024-03-23T05:34:47;2.43;;;2.23;;
803;SDS011;25687;49.976;8.240;2024-03-23T05:37:12;1.87;;;1.70;;
803;SDS011;25687;49.976;8.240;2024-03-23T05:39:37;2.13;;;1.93;;
803;SDS011;25687;49.976;8.240;2024-03-23T05:42:03;1.27;;;1.20;;
803;SDS011;25687;49.976;8.240;2024-03-23T05:44:28;2.30;;;1.60;;
803;SDS011;25687;49.976;8.240;2024-03-23T05:46:53;1.33;;;1.30;;
803;SDS011;25687;49.976;8.240;2024-03-23T05:49:18;1.50;;;1.40;;
803;SDS011;25687;49.976;8.240;2024-03-23T05:51:44;1.10;;;1.10;;
803;SDS011;25687;49.976;8.240;2024-03-23T05:54:09;1.40;;;1.30;;
803;SDS011;25687;49.976;8.240;2024-03-23T05:56:34;1.97;;;1.27;;
803;SDS011;25687;49.976;8.240;2024-03-23T05:59:00;1.57;;;1.47;;
803;SDS011;25687;49.976;8.240;2024-03-23T06:01:25;1.60;;;1.50;;
803;SDS011;25687;49.976;8.240;2024-03-23T06:03:53;1.50;;;1.40;;
803;SDS011;25687;49.976;8.240;2024-03-23T06:06:19;2.00;;;1.80;;
803;SDS011;25687;49.976;8.240;2024-03-23T06:08:44;1.67;;;1.57;;
803;SDS011;25687;49.976;8.240;2024-03-23T06:11:09;1.67;;;1.50;;
803;SDS011;25687;49.976;8.240;2024-03-23T06:13:35;1.83;;;1.73;;
803;SDS011;25687;49.976;8.240;2024-03-23T06:16:00;1.53;;;1.43;;
803;SDS011;25687;49.976;8.240;2024-03-23T06:18:26;1.73;;;1.60;;
803;SDS011;25687;49.976;8.240;2024-03-23T06:20:51;1.50;;;1.40;;
803;SDS011;25687;49.976;8.240;2024-03-23T06:23:17;1.80;;;1.70;;
803;SDS011;25687;49.976;8.240;2024-03-23T06:25:45;1.37;;;1.27;;
803;SDS011;25687;49.976;8.240;2024-03-23T06:28:10;1.83;;;1.73;;
803;SDS011;25687;49.976;8.240;2024-03-23T06:30:35;1.53;;;1.43;;
803;SDS011;25687;49.976;8.240;2024-03-23T06:33:01;1.97;;;1.87;;
803;SDS011;25687;49.976;8.240;2024-03-23T06:35:26;1.97;;;1.40;;
803;SDS011;25687;49.976;8.240;2024-03-23T06:37:51;1.33;;;1.23;;
803;SDS011;25687;49.976;8.240;2024-03-23T06:40:17;1.80;;;1.70;;
803;SDS011;25687;49.976;8.240;2024-03-23T06:42:42;1.90;;;1.80;;
803;SDS011;25687;49.976;8.240;2024-03-23T06:45:08;2.07;;;1.97;;
803;SDS011;25687;49.976;8.240;2024-03-23T06:47:34;2.63;;;2.10;;
803;SDS011;25687;49.976;8.240;2024-03-23T06:49:59;2.67;;;1.90;;
803;SDS011;25687;49.976;8.240;2024-03-23T06:52:28;3.00;;;2.00;;
803;SDS011;25687;49.976;8.240;2024-03-23T06:54:54;2.27;;;2.10;;
803;SDS011;25687;49.976;8.240;2024-03-23T06:57:19;1.93;;;1.83;;
803;SDS011;25687;49.976;8.240;2024-03-23T06:59:44;2.27;;;2.03;;
803;SDS011;25687;49.976;8.240;2024-03-23T07:02:09;4.07;;;2.20;;
803;SDS011;25687;49.976;8.240;2024-03-23T07:04:35;4.10;;;1.90;;
803;SDS011;25687;49.976;8.240;2024-03-23T07:07:01;2.73;;;2.13;;
803;SDS011;25687;49.976;8.240;2024-03-23T07:09:30;2.07;;;1.87;;
803;SDS011;25687;49.976;8.240;2024-03-23T07:11:56;6.47;;;2.10;;
803;SDS011;25687;49.976;8.240;2024-03-23T07:14:22;5.37;;;1.93;;
803;SDS011;25687;49.976;8.240;2024-03-23T07:16:48;1.87;;;1.60;;
803;SDS011;25687;49.976;8.240;2024-03-23T07:19:14;3.40;;;2.37;;
803;SDS011;25687;49.976;8.240;2024-03-23T07:21:41;2.90;;;2.23;;
803;SDS011;25687;49.976;8.240;2024-03-23T07:24:07;3.73;;;2.43;;
803;SDS011;25687;49.976;8.240;2024-03-23T07:26:32;4.67;;;2.77;;
803;SDS011;25687;49.976;8.240;2024-03-23T07:28:57;4.73;;;2.37;;
803;SDS011;25687;49.976;8.240;2024-03-23T07:31:23;2.73;;;2.33;;
803;SDS011;25687;49.976;8.240;2024-03-23T07:33:49;6.63;;;2.83;;
803;SDS011;25687;49.976;8.240;2024-03-23T07:36:14;3.20;;;2.70;;
803;SDS011;25687;49.976;8.240;2024-03-23T07:38:40;5.10;;;2.60;;
803;SDS011;25687;49.976;8.240;2024-03-23T07:41:07;4.83;;;3.00;;
803;SDS011;25687;49.976;8.240;2024-03-23T07:43:39;4.80;;;3.03;;
803;SDS011;25687;49.976;8.240;2024-03-23T07:46:05;6.07;;;4.30;;
803;SDS011;25687;49.976;8.240;2024-03-23T07:48:31;5.20;;;3.40;;
803;SDS011;25687;49.976;8.240;2024-03-23T07:51:01;7.80;;;3.40;;
803;SDS011;25687;49.976;8.240;2024-03-23T07:53:31;4.53;;;3.23;;
803;SDS011;25687;49.976;8.240;2024-03-23T07:56:03;7.47;;;3.47;;
803;SDS011;25687;49.976;8.240;2024-03-23T07:58:32;3.93;;;3.27;;
803;SDS011;25687;49.976;8.240;2024-03-23T08:01:03;4.30;;;2.93;;
803;SDS011;25687;49.976;8.240;2024-03-23T08:03:30;6.00;;;3.20;;
803;SDS011;25687;49.976;8.240;2024-03-23T08:05:55;7.73;;;4.00;;
803;SDS011;25687;49.976;8.240;2024-03-23T08:08:20;4.40;;;3.03;;
803;SDS011;25687;49.976;8.240;2024-03-23T08:10:52;4.07;;;3.47;;
803;SDS011;25687;49.976;8.240;2024-03-23T08:13:18;4.37;;;3.00;;
803;SDS011;25687;49.976;8.240;2024-03-23T08:15:44;5.83;;;3.13;;
803;SDS011;25687;49.976;8.240;2024-03-23T08:18:12;7.83;;;3.27;;
803;SDS011;25687;49.976;8.240;2024-03-23T08:20:41;7.73;;;3.70;;
803;SDS011;25687;49.976;8.240;2024-03-23T08:23:07;5.33;;;3.30;;
803;SDS011;25687;49.976;8.240;2024-03-23T08:25:33;6.20;;;3.03;;
803;SDS011;25687;49.976;8.240;2024-03-23T08:27:59;7.37;;;3.00;;
803;SDS011;25687;49.976;8.240;2024-03-23T08:30:24;5.33;;;3.10;;
803;SDS011;25687;49.976;8.240;2024-03-23T08:32:50;10.20;;;3.53;;
803;SDS011;25687;49.976;8.240;2024-03-23T08:35:16;6.33;;;3.13;;
803;SDS011;25687;49.976;8.240;2024-03-23T08:37:41;6.50;;;3.23;;
803;SDS011;25687;49.976;8.240;2024-03-23T08:40:06;5.30;;;2.80;;
803;SDS011;25687;49.976;8.240;2024-03-23T08:42:33;7.63;;;3.40;;
803;SDS011;25687;49.976;8.240;2024-03-23T08:44:59;8.63;;;4.13;;
803;SDS011;25687;49.976;8.240;2024-03-23T08:47:24;9.40;;;3.70;;
803;SDS011;25687;49.976;8.240;2024-03-23T08:49:49;8.13;;;3.37;;
803;SDS011;25687;49.976;8.240;2024-03-23T08:52:14;11.80;;;3.90;;
803;SDS011;25687;49.976;8.240;2024-03-23T08:54:40;9.43;;;2.83;;
803;SDS011;25687;49.976;8.240;2024-03-23T08:57:05;7.10;;;3.30;;
803;SDS011;25687;49.976;8.240;2024-03-23T08:59:32;7.50;;;2.97;;
803;SDS011;25687;49.976;8.240;2024-03-23T09:01:57;5.37;;;2.90;;
803;SDS011;25687;49.976;8.240;2024-03-23T09:04:22;6.27;;;3.10;;
803;SDS011;25687;49.976;8.240;2024-03-23T09:06:48;6.10;;;3.20;;
803;SDS011;25687;49.976;8.240;2024-03-23T09:09:13;5.40;;;2.50;;
803;SDS011;25687;49.976;8.240;2024-03-23T09:11:38;7.27;;;2.83;;
803;SDS011;25687;49.976;8.240;2024-03-23T09:14:03;5.60;;;2.27;;
803;SDS011;25687;49.976;8.240;2024-03-23T09:16:29;6.27;;;2.37;;
803;SDS011;25687;49.976;8.240;2024-03-23T09:18:54;6.03;;;2.13;;
803;SDS011;25687;49.976;8.240;2024-03-23T09:21:19;6.07;;;2.20;;
803;SDS011;25687;49.976;8.240;2024-03-23T09:23:45;5.93;;;2.70;;
803;SDS011;25687;49.976;8.240;2024-03-23T09:26:11;7.00;;;2.43;;
803;SDS011;25687;49.976;8.240;2024-03-23T09:28:37;5.57;;;2.40;;
803;SDS011;25687;49.976;8.240;2024-03-23T09:31:05;4.37;;;1.60;;
803;SDS011;25687;49.976;8.240;2024-03-23T09:33:32;4.50;;;1.60;;
803;SDS011;25687;49.976;8.240;2024-03-23T09:35:58;4.23;;;2.13;;
803;SDS011;25687;49.976;8.240;2024-03-23T09:38:27;4.67;;;1.97;;
803;SDS011;25687;49.976;8.240;2024-03-23T09:40:53;6.83;;;1.87;;
803;SDS011;25687;49.976;8.240;2024-03-23T09:43:19;4.40;;;2.00;;
803;SDS011;25687;49.976;8.240;2024-03-23T09:45:45;6.43;;;2.00;;
803;SDS011;25687;49.976;8.240;2024-03-23T09:48:11;3.30;;;1.83;;
803;SDS011;25687;49.976;8.240;2024-03-23T09:50:40;2.83;;;1.40;;
803;SDS011;25687;49.976;8.240;2024-03-23T09:53:09;3.07;;;1.90;;
803;SDS011;25687;49.976;8.240;2024-03-23T09:55:36;2.93;;;1.63;;
803;SDS011;25687;49.976;8.240;2024-03-23T09:58:02;6.40;;;1.90;;
803;SDS011;25687;49.976;8.240;2024-03-23T10:00:27;6.93;;;2.30;;
803;SDS011;25687;49.976;8.240;2024-03-23T10:02:56;5.17;;;1.93;;
803;SDS011;25687;49.976;8.240;2024-03-23T10:05:23;5.50;;;2.10;;
803;SDS011;25687;49.976;8.240;2024-03-23T10:07:49;6.47;;;2.40;;
803;SDS011;25687;49.976;8.240;2024-03-23T10:10:15;4.17;;;2.53;;
803;SDS011;25687;49.976;8.240;2024-03-23T10:12:47;4.43;;;2.60;;
803;SDS011;25687;49.976;8.240;2024-03-23T10:15:22;5.33;;;1.93;;
803;SDS011;25687;49.976;8.240;2024-03-23T10:17:48;3.70;;;2.10;;
803;SDS011;25687;49.976;8.240;2024-03-23T10:20:20;7.83;;;1.97;;
803;SDS011;25687;49.976;8.240;2024-03-23T10:22:48;3.07;;;1.73;;
803;SDS011;25687;49.976;8.240;2024-03-23T10:25:14;2.77;;;1.80;;
803;SDS011;25687;49.976;8.240;2024-03-23T10:27:40;6.50;;;2.10;;
803;SDS011;25687;49.976;8.240;2024-03-23T10:30:14;6.83;;;2.00;;
803;SDS011;25687;49.976;8.240;2024-03-23T10:32:41;2.40;;;1.40;;
803;SDS011;25687;49.976;8.240;2024-03-23T10:35:16;4.53;;;1.40;;
803;SDS011;25687;49.976;8.240;2024-03-23T10:37:44;6.60;;;1.57;;
803;SDS011;25687;49.976;8.240;2024-03-23T10:40:10;3.43;;;1.87;;
803;SDS011;25687;49.976;8.240;2024-03-23T10:42:37;8.13;;;2.47;;
803;SDS011;25687;49.976;8.240;2024-03-23T10:45:03;6.03;;;2.07;;
803;SDS011;25687;49.976;8.240;2024-03-23T10:47:30;2.60;;;1.73;;
803;SDS011;25687;49.976;8.240;2024-03-23T10:49:57;4.30;;;1.87;;
803;SDS011;25687;49.976;8.240;2024-03-23T10:52:22;2.60;;;2.23;;
803;SDS011;25687;49.976;8.240;2024-03-23T10:54:47;3.27;;;2.20;;
803;SDS011;25687;49.976;8.240;2024-03-23T10:57:20;4.20;;;2.10;;
803;SDS011;25687;49.976;8.240;2024-03-23T10:59:48;5.67;;;2.87;;
803;SDS011;25687;49.976;8.240;2024-03-23T11:02:20;4.00;;;2.37;;
803;SDS011;25687;49.976;8.240;2024-03-23T11:04:46;2.80;;;1.70;;
803;SDS011;25687;49.976;8.240;2024-03-23T11:09:48;2.37;;;1.70;;
803;SDS011;25687;49.976;8.240;2024-03-23T11:14:50;3.17;;;1.47;;
803;SDS011;25687;49.976;8.240;2024-03-23T11:17:20;1.83;;;1.20;;
803;SDS011;25687;49.976;8.240;2024-03-23T11:20:02;6.03;;;1.87;;
803;SDS011;25687;49.976;8.240;2024-03-23T11:25:19;2.17;;;1.70;;
803;SDS011;25687;49.976;8.240;2024-03-23T11:27:46;3.87;;;2.23;;
803;SDS011;25687;49.976;8.240;2024-03-23T11:30:12;7.27;;;2.97;;
803;SDS011;25687;49.976;8.240;2024-03-23T11:32:48;9.33;;;3.00;;
803;SDS011;25687;49.976;8.240;2024-03-23T11:35:31;5.93;;;3.03;;
803;SDS011;25687;49.976;8.240;2024-03-23T11:40:30;10.10;;;2.97;;
803;SDS011;25687;49.976;8.240;2024-03-23T11:43:01;7.73;;;2.83;;
803;SDS011;25687;49.976;8.240;2024-03-23T11:45:28;5.63;;;3.23;;
803;SDS011;25687;49.976;8.240;2024-03-23T11:48:13;9.13;;;4.63;;
803;SDS011;25687;49.976;8.240;2024-03-23T11:50:44;10.90;;;3.20;;
803;SDS011;25687;49.976;8.240;2024-03-23T11:53:20;4.60;;;2.73;;
803;SDS011;25687;49.976;8.240;2024-03-23T11:55:48;9.27;;;3.57;;
803;SDS011;25687;49.976;8.240;2024-03-23T11:58:14;8.27;;;3.77;;
803;SDS011;25687;49.976;8.240;2024-03-23T12:00:41;6.67;;;3.07;;
803;SDS011;25687;49.976;8.240;2024-03-23T12:03:06;7.93;;;3.07;;
803;SDS011;25687;49.976;8.240;2024-03-23T12:05:32;6.53;;;2.60;;
803;SDS011;25687;49.976;8.240;2024-03-23T12:13:42;3.87;;;2.10;;
803;SDS011;25687;49.976;8.240;2024-03-23T12:18:40;4.53;;;2.37;;
803;SDS011;25687;49.976;8.240;2024-03-23T12:21:06;7.43;;;2.17;;
803;SDS011;25687;49.976;8.240;2024-03-23T12:23:32;5.00;;;2.33;;
803;SDS011;25687;49.976;8.240;2024-03-23T12:25:58;5.90;;;2.77;;
803;SDS011;25687;49.976;8.240;2024-03-23T12:28:24;6.73;;;2.67;;
803;SDS011;25687;49.976;8.240;2024-03-23T12:30:50;4.47;;;2.50;;
803;SDS011;25687;49.976;8.240;2024-03-23T12:33:16;4.17;;;1.90;;
803;SDS011;25687;49.976;8.240;2024-03-23T12:35:41;6.20;;;2.03;;
803;SDS011;25687;49.976;8.240;2024-03-23T12:38:06;5.43;;;1.93;;
803;SDS011;25687;49.976;8.240;2024-03-23T12:40:32;4.50;;;1.60;;
803;SDS011;25687;49.976;8.240;2024-03-23T12:42:57;4.07;;;1.67;;
803;SDS011;25687;49.976;8.240;2024-03-23T12:45:22;1.50;;;1.07;;
803;SDS011;25687;49.976;8.240;2024-03-23T12:47:48;1.10;;;0.87;;
803;SDS011;25687;49.976;8.240;2024-03-23T12:50:13;2.43;;;0.60;;
803;SDS011;25687;49.976;8.240;2024-03-23T12:52:38;0.73;;;0.70;;
803;SDS011;25687;49.976;8.240;2024-03-23T12:55:04;0.80;;;0.80;;
803;SDS011;25687;49.976;8.240;2024-03-23T12:57:32;1.07;;;0.90;;
803;SDS011;25687;49.976;8.240;2024-03-23T12:59:58;1.00;;;1.00;;
803;SDS011;25687;49.976;8.240;2024-03-23T13:02:23;2.13;;;1.37;;
803;SDS011;25687;49.976;8.240;2024-03-23T13:04:52;0.80;;;0.80;;
803;SDS011;25687;49.976;8.240;2024-03-23T13:07:18;0.80;;;0.80;;
803;SDS011;25687;49.976;8.240;2024-03-23T13:09:44;0.60;;;0.60;;
803;SDS011;25687;49.976;8.240;2024-03-23T13:12:10;1.30;;;0.90;;
803;SDS011;25687;49.976;8.240;2024-03-23T13:14:39;0.90;;;0.90;;
803;SDS011;25687;49.976;8.240;2024-03-23T13:17:04;0.77;;;0.70;;
803;SDS011;25687;49.976;8.240;2024-03-23T13:19:30;0.80;;;0.80;;
803;SDS011;25687;49.976;8.240;2024-03-23T13:21:57;0.80;;;0.80;;
803;SDS011;25687;49.976;8.240;2024-03-23T13:24:24;0.70;;;0.70;;
803;SDS011;25687;49.976;8.240;2024-03-23T13:26:53;0.57;;;0.57;;
803;SDS011;25687;49.976;8.240;2024-03-23T13:29:19;1.13;;;0.90;;
803;SDS011;25687;49.976;8.240;2024-03-23T13:31:45;0.77;;;0.77;;
803;SDS011;25687;49.976;8.240;2024-03-23T13:34:11;1.00;;;0.80;;
803;SDS011;25687;49.976;8.240;2024-03-23T13:36:39;0.70;;;0.70;;
803;SDS011;25687;49.976;8.240;2024-03-23T13:39:05;0.60;;;0.60;;
803;SDS011;25687;49.976;8.240;2024-03-23T13:41:35;0.83;;;0.80;;
803;SDS011;25687;49.976;8.240;2024-03-23T13:44:04;3.03;;;1.00;;
803;SDS011;25687;49.976;8.240;2024-03-23T13:46:35;2.43;;;0.90;;
803;SDS011;25687;49.976;8.240;2024-03-23T13:49:01;0.70;;;0.70;;
803;SDS011;25687;49.976;8.240;2024-03-23T13:51:26;1.37;;;0.80;;
803;SDS011;25687;49.976;8.240;2024-03-23T13:53:52;3.07;;;1.10;;
803;SDS011;25687;49.976;8.240;2024-03-23T13:56:18;2.27;;;0.87;;
803;SDS011;25687;49.976;8.240;2024-03-23T13:58:44;1.03;;;0.90;;
803;SDS011;25687;49.976;8.240;2024-03-23T14:01:11;0.87;;;0.87;;
803;SDS011;25687;49.976;8.240;2024-03-23T14:03:37;0.87;;;0.80;;
803;SDS011;25687;49.976;8.240;2024-03-23T14:06:03;1.90;;;1.03;;
803;SDS011;25687;49.976;8.240;2024-03-23T14:08:29;1.87;;;0.80;;
803;SDS011;25687;49.976;8.240;2024-03-23T14:10:57;1.83;;;0.90;;
803;SDS011;25687;49.976;8.240;2024-03-23T14:13:22;1.90;;;1.10;;
803;SDS011;25687;49.976;8.240;2024-03-23T14:15:52;1.27;;;0.90;;
803;SDS011;25687;49.976;8.240;2024-03-23T14:18:18;1.80;;;0.90;;
803;SDS011;25687;49.976;8.240;2024-03-23T14:20:43;1.13;;;1.00;;
803;SDS011;25687;49.976;8.240;2024-03-23T14:23:09;1.97;;;1.00;;
803;SDS011;25687;49.976;8.240;2024-03-23T14:25:34;1.80;;;0.90;;
803;SDS011;25687;49.976;8.240;2024-03-23T14:27:59;1.80;;;1.00;;
803;SDS011;25687;49.976;8.240;2024-03-23T14:30:24;3.83;;;1.03;;
803;SDS011;25687;49.976;8.240;2024-03-23T14:32:50;2.17;;;0.93;;
803;SDS011;25687;49.976;8.240;2024-03-23T14:35:16;2.40;;;1.23;;
803;SDS011;25687;49.976;8.240;2024-03-23T14:37:41;2.50;;;1.17;;
803;SDS011;25687;49.976;8.240;2024-03-23T14:40:07;2.13;;;1.10;;
803;SDS011;25687;49.976;8.240;2024-03-23T14:42:33;1.90;;;0.90;;
803;SDS011;25687;49.976;8.240;2024-03-23T14:44:58;2.47;;;1.10;;
803;SDS011;25687;49.976;8.240;2024-03-23T14:47:24;1.87;;;1.00;;
803;SDS011;25687;49.976;8.240;2024-03-23T14:49:49;1.53;;;0.90;;
803;SDS011;25687;49.976;8.240;2024-03-23T14:52:16;3.13;;;1.10;;
803;SDS011;25687;49.976;8.240;2024-03-23T14:54:44;1.77;;;1.07;;
803;SDS011;25687;49.976;8.240;2024-03-23T14:57:10;1.80;;;1.30;;
803;SDS011;25687;49.976;8.240;2024-03-23T14:59:36;2.23;;;1.00;;
803;SDS011;25687;49.976;8.240;2024-03-23T15:02:05;1.00;;;0.90;;
803;SDS011;25687;49.976;8.240;2024-03-23T15:04:31;1.90;;;1.07;;
803;SDS011;25687;49.976;8.240;2024-03-23T15:06:56;1.43;;;0.80;;
803;SDS011;25687;49.976;8.240;2024-03-23T15:09:22;1.33;;;0.80;;
803;SDS011;25687;49.976;8.240;2024-03-23T15:11:47;1.60;;;0.80;;
803;SDS011;25687;49.976;8.240;2024-03-23T15:14:12;0.90;;;0.80;;
803;SDS011;25687;49.976;8.240;2024-03-23T15:16:37;1.73;;;1.13;;
803;SDS011;25687;49.976;8.240;2024-03-23T15:19:03;1.80;;;1.07;;
803;SDS011;25687;49.976;8.240;2024-03-23T15:21:31;1.27;;;0.87;;
803;SDS011;25687;49.976;8.240;2024-03-23T15:23:56;1.57;;;1.07;;
803;SDS011;25687;49.976;8.240;2024-03-23T15:26:22;1.03;;;0.93;;
803;SDS011;25687;49.976;8.240;2024-03-23T15:28:48;1.20;;;0.90;;
803;SDS011;25687;49.976;8.240;2024-03-23T15:31:22;2.67;;;1.10;;
803;SDS011;25687;49.976;8.240;2024-03-23T15:33:48;1.23;;;0.90;;
803;SDS011;25687;49.976;8.240;2024-03-23T15:36:13;1.03;;;0.87;;
803;SDS011;25687;49.976;8.240;2024-03-23T15:38:39;1.70;;;1.50;;
803;SDS011;25687;49.976;8.240;2024-03-23T15:41:04;1.80;;;0.93;;
803;SDS011;25687;49.976;8.240;2024-03-23T15:43:30;1.73;;;0.80;;
803;SDS011;25687;49.976;8.240;2024-03-23T15:45:56;1.10;;;0.80;;
803;SDS011;25687;49.976;8.240;2024-03-23T15:48:26;2.30;;;0.90;;
803;SDS011;25687;49.976;8.240;2024-03-23T15:50:56;2.50;;;0.93;;
803;SDS011;25687;49.976;8.240;2024-03-23T15:53:23;1.00;;;1.00;;
803;SDS011;25687;49.976;8.240;2024-03-23T15:55:59;0.90;;;0.90;;
803;SDS011;25687;49.976;8.240;2024-03-23T15:58:26;2.17;;;1.00;;
803;SDS011;25687;49.976;8.240;2024-03-23T16:00:56;1.67;;;1.00;;
803;SDS011;25687;49.976;8.240;2024-03-23T16:03:24;1.37;;;0.77;;
803;SDS011;25687;49.976;8.240;2024-03-23T16:05:52;2.40;;;1.13;;
803;SDS011;25687;49.976;8.240;2024-03-23T16:08:17;1.53;;;0.90;;
803;SDS011;25687;49.976;8.240;2024-03-23T16:10:43;3.60;;;0.90;;
803;SDS011;25687;49.976;8.240;2024-03-23T16:13:08;1.73;;;0.90;;
803;SDS011;25687;49.976;8.240;2024-03-23T16:15:33;1.40;;;0.80;;
803;SDS011;25687;49.976;8.240;2024-03-23T16:17:59;1.10;;;1.00;;